createdAt,value
2018-12-14T00:00:32.267Z,9.07
2018-12-14T00:02:59.848Z,8.80
2018-12-14T00:05:27.496Z,8.77
2018-12-14T00:07:55.080Z,7.90
2018-12-14T00:10:22.692Z,9.27
2018-12-14T00:12:50.277Z,8.97
2018-12-14T00:15:17.988Z,9.10
2018-12-14T00:17:45.652Z,9.47
2018-12-14T00:20:13.264Z,10.13
2018-12-14T00:22:40.876Z,9.43
2018-12-14T00:25:08.545Z,8.97
2018-12-14T00:27:36.176Z,8.47
2018-12-14T00:30:04.789Z,9.97
2018-12-14T00:32:32.420Z,9.00
2018-12-14T00:35:00.117Z,9.30
2018-12-14T00:37:27.772Z,8.63
2018-12-14T00:39:55.441Z,9.20
2018-12-14T00:42:23.103Z,8.17
2018-12-14T00:44:50.769Z,8.60
2018-12-14T00:47:18.389Z,10.20
2018-12-14T00:49:46.079Z,8.90
2018-12-14T00:52:13.753Z,9.23
2018-12-14T00:54:41.335Z,8.13
2018-12-14T00:57:08.976Z,8.17
2018-12-14T00:59:36.636Z,9.07
2018-12-14T01:02:06.235Z,9.83
2018-12-14T01:04:33.917Z,9.87
2018-12-14T01:07:01.576Z,9.10
2018-12-14T01:09:29.236Z,9.37
2018-12-14T01:11:58.342Z,8.37
2018-12-14T01:14:26.205Z,9.80
2018-12-14T01:16:53.811Z,9.10
2018-12-14T01:19:21.420Z,9.03
2018-12-14T01:21:49.088Z,9.13
2018-12-14T01:24:16.752Z,9.30
2018-12-14T01:26:44.365Z,8.10
2018-12-14T01:29:11.979Z,9.30
2018-12-14T01:31:39.639Z,9.00
2018-12-14T01:34:07.304Z,9.13
2018-12-14T01:36:34.965Z,8.20
2018-12-14T01:39:03.291Z,8.07
2018-12-14T01:41:30.956Z,8.97
2018-12-14T01:43:58.551Z,9.73
2018-12-14T01:46:26.232Z,8.80
2018-12-14T01:48:53.892Z,9.10
2018-12-14T01:51:21.556Z,9.03
2018-12-14T01:53:49.211Z,8.33
2018-12-14T01:56:16.880Z,7.80
2018-12-14T01:58:44.623Z,10.50
2018-12-14T02:01:12.208Z,9.87
2018-12-14T02:03:39.816Z,9.00
2018-12-14T02:06:07.395Z,8.40
2018-12-14T02:08:35.096Z,9.17
2018-12-14T02:11:02.757Z,9.23
2018-12-14T02:13:30.421Z,8.40
2018-12-14T02:15:58.007Z,9.60
2018-12-14T02:18:25.622Z,8.43
2018-12-14T02:20:53.212Z,8.73
2018-12-14T02:23:20.865Z,8.00
2018-12-14T02:25:48.529Z,8.67
2018-12-14T02:28:16.782Z,8.77
2018-12-14T02:30:44.878Z,7.83
2018-12-14T02:33:12.635Z,8.50
2018-12-14T02:35:40.305Z,9.17
2018-12-14T02:38:08.003Z,8.70
2018-12-14T02:40:35.628Z,8.43
2018-12-14T02:43:03.277Z,8.87
2018-12-14T02:45:30.968Z,8.40
2018-12-14T02:47:58.581Z,8.33
2018-12-14T02:50:26.181Z,8.43
2018-12-14T02:52:53.848Z,8.33
2018-12-14T02:55:21.476Z,10.03
2018-12-14T02:57:49.172Z,9.10
2018-12-14T03:00:16.933Z,9.00
2018-12-14T03:02:44.587Z,9.10
2018-12-14T03:05:12.255Z,7.60
2018-12-14T03:07:39.879Z,9.13
2018-12-14T03:10:07.783Z,8.97
2018-12-14T03:12:35.360Z,7.97
2018-12-14T03:15:03.324Z,9.53
2018-12-14T03:17:31.043Z,9.50
2018-12-14T03:19:58.999Z,9.67
2018-12-14T03:22:26.639Z,8.40
2018-12-14T03:24:54.381Z,10.83
2018-12-14T03:27:21.980Z,10.07
2018-12-14T03:29:49.596Z,8.67
2018-12-14T03:32:17.266Z,9.63
2018-12-14T03:34:44.878Z,10.13
2018-12-14T03:37:12.464Z,10.13
2018-12-14T03:39:40.080Z,10.40
2018-12-14T03:42:07.811Z,10.10
2018-12-14T03:44:35.485Z,11.17
2018-12-14T03:47:03.139Z,10.90
2018-12-14T03:49:30.809Z,10.10
2018-12-14T03:51:58.502Z,10.60
2018-12-14T03:54:26.183Z,10.40
2018-12-14T03:56:53.798Z,10.80
2018-12-14T03:59:21.391Z,10.20
2018-12-14T04:01:48.997Z,10.70
2018-12-14T04:04:16.589Z,10.93
2018-12-14T04:06:44.234Z,12.00
2018-12-14T04:09:11.912Z,11.17
2018-12-14T04:11:39.524Z,12.63
2018-12-14T04:14:07.127Z,12.30
2018-12-14T04:16:34.785Z,13.17
2018-12-14T04:19:02.379Z,11.70
2018-12-14T04:21:30.001Z,11.87
2018-12-14T04:23:57.597Z,10.90
2018-12-14T04:26:25.231Z,11.97
2018-12-14T04:28:52.905Z,12.13
2018-12-14T04:31:20.517Z,12.90
2018-12-14T04:33:48.151Z,12.30
2018-12-14T04:36:15.884Z,12.70
2018-12-14T04:38:43.521Z,12.80
2018-12-14T04:41:11.124Z,12.60
2018-12-14T04:43:38.778Z,12.90
2018-12-14T04:46:06.392Z,12.07
2018-12-14T04:48:34.001Z,13.87
2018-12-14T04:51:01.668Z,11.23
2018-12-14T04:53:29.267Z,14.20
2018-12-14T04:55:56.908Z,13.93
2018-12-14T04:58:24.639Z,13.00
2018-12-14T05:00:52.309Z,11.97
2018-12-14T05:03:19.971Z,12.40
2018-12-14T05:05:47.636Z,14.50
2018-12-14T05:08:15.476Z,15.30
2018-12-14T05:10:43.073Z,16.70
2018-12-14T05:13:10.836Z,15.73
2018-12-14T05:15:38.505Z,16.40
2018-12-14T05:18:06.159Z,18.27
2018-12-14T05:20:33.825Z,20.07
2018-12-14T05:23:01.488Z,19.93
2018-12-14T05:25:29.144Z,21.13
2018-12-14T05:27:56.906Z,19.03
2018-12-14T05:30:24.640Z,19.50
2018-12-14T05:32:52.345Z,19.30
2018-12-14T05:35:20.096Z,20.27
2018-12-14T05:37:47.765Z,20.70
2018-12-14T05:40:15.391Z,19.90
2018-12-14T05:42:42.994Z,21.13
2018-12-14T05:45:10.757Z,23.90
2018-12-14T05:47:38.424Z,21.57
2018-12-14T05:50:06.288Z,23.17
2018-12-14T05:52:33.947Z,24.60
2018-12-14T05:55:01.611Z,23.83
2018-12-14T05:57:29.218Z,22.40
2018-12-14T05:59:56.840Z,23.97
2018-12-14T06:02:24.493Z,24.80
2018-12-14T06:04:52.163Z,25.40
2018-12-14T06:07:19.766Z,23.20
2018-12-14T06:09:47.392Z,24.70
2018-12-14T06:12:15.049Z,26.60
2018-12-14T06:14:42.635Z,26.70
2018-12-14T06:17:10.375Z,24.87
2018-12-14T06:19:38.044Z,26.63
2018-12-14T06:22:05.696Z,26.10
2018-12-14T06:24:33.372Z,27.07
2018-12-14T06:27:01.027Z,25.37
2018-12-14T06:29:28.631Z,26.83
2018-12-14T06:31:56.243Z,30.77
2018-12-14T06:34:23.906Z,28.50
2018-12-14T06:36:52.835Z,28.17
2018-12-14T06:39:20.983Z,26.00
2018-12-14T06:41:48.808Z,25.30
2018-12-14T06:44:16.512Z,23.23
2018-12-14T06:46:44.138Z,26.90
2018-12-14T06:49:11.743Z,22.60
2018-12-14T06:51:39.392Z,24.17
2018-12-14T06:54:07.056Z,23.90
2018-12-14T06:56:34.715Z,20.37
2018-12-14T06:59:02.488Z,21.17
2018-12-14T07:01:30.155Z,21.20
2018-12-14T07:03:57.760Z,22.33
2018-12-14T07:06:25.376Z,19.70
2018-12-14T07:08:53.037Z,20.30
2018-12-14T07:11:20.700Z,17.93
2018-12-14T07:13:48.364Z,16.60
2018-12-14T07:16:16.395Z,16.43
2018-12-14T07:18:44.104Z,14.97
2018-12-14T07:21:11.687Z,15.70
2018-12-14T07:23:39.421Z,15.50
2018-12-14T07:26:07.088Z,15.40
2018-12-14T07:28:35.463Z,14.30
2018-12-14T07:31:03.128Z,14.30
2018-12-14T07:33:30.792Z,15.87
2018-12-14T07:35:58.460Z,16.30
2018-12-14T07:38:26.120Z,15.30
2018-12-14T07:40:53.775Z,17.07
2018-12-14T07:43:21.510Z,15.33
2018-12-14T07:45:49.115Z,16.30
2018-12-14T07:48:17.028Z,15.40
2018-12-14T07:50:44.732Z,14.83
2018-12-14T07:53:12.395Z,15.20
2018-12-14T07:55:40.063Z,15.70
2018-12-14T07:58:07.732Z,16.37
2018-12-14T08:00:35.386Z,16.90
2018-12-14T08:03:03.056Z,15.37
2018-12-14T08:05:30.716Z,15.50
2018-12-14T08:07:58.378Z,15.67
2018-12-14T08:10:26.041Z,16.93
2018-12-14T08:12:53.873Z,16.47
2018-12-14T08:15:21.530Z,15.77
2018-12-14T08:17:49.131Z,17.17
2018-12-14T08:20:17.254Z,16.00
2018-12-14T08:22:45.063Z,16.43
2018-12-14T08:25:12.840Z,16.97
2018-12-14T08:27:40.495Z,18.27
2018-12-14T08:30:08.989Z,16.43
2018-12-14T08:32:36.748Z,17.03
2018-12-14T08:35:05.635Z,16.63
2018-12-14T08:37:33.304Z,16.77
2018-12-14T08:40:00.963Z,15.10
2018-12-14T08:42:28.627Z,16.57
2018-12-14T08:44:56.287Z,15.97
2018-12-14T08:47:23.895Z,17.97
2018-12-14T08:49:51.517Z,18.13
2018-12-14T08:52:19.180Z,17.87
2018-12-14T08:54:46.852Z,19.57
2018-12-14T08:57:14.499Z,17.43
2018-12-14T08:59:42.163Z,17.20
2018-12-14T09:02:10.588Z,17.97
2018-12-14T09:04:38.180Z,18.47
2018-12-14T09:07:05.876Z,18.50
2018-12-14T09:09:33.464Z,17.60
2018-12-14T09:12:01.096Z,16.80
2018-12-14T09:14:28.698Z,19.60
2018-12-14T09:16:56.306Z,17.50
2018-12-14T09:19:23.979Z,16.53
2018-12-14T09:21:51.644Z,20.23
2018-12-14T09:24:19.231Z,17.27
2018-12-14T09:26:46.872Z,17.20
2018-12-14T09:29:14.519Z,19.10
2018-12-14T09:31:42.270Z,17.53
2018-12-14T09:34:09.961Z,19.53
2018-12-14T09:36:37.574Z,18.23
2018-12-14T09:39:06.204Z,19.03
2018-12-14T09:41:33.872Z,19.20
2018-12-14T09:44:01.528Z,18.83
2018-12-14T09:46:29.120Z,20.33
2018-12-14T09:48:56.725Z,18.67
2018-12-14T09:51:24.307Z,18.90
2018-12-14T09:53:51.980Z,19.57
2018-12-14T09:56:19.949Z,19.33
2018-12-14T09:58:47.612Z,20.20
2018-12-14T10:01:15.276Z,17.83
2018-12-14T10:03:43.233Z,20.13
2018-12-14T10:06:15.658Z,18.60
2018-12-14T10:08:40.616Z,20.33
2018-12-14T10:11:08.850Z,19.17
2018-12-14T10:13:36.552Z,20.20
2018-12-14T10:16:04.533Z,17.10
2018-12-14T10:18:32.588Z,18.17
2018-12-14T10:21:00.259Z,17.60
2018-12-14T10:23:27.923Z,15.57
2018-12-14T10:25:55.676Z,16.07
2018-12-14T10:28:23.358Z,16.30
2018-12-14T10:30:51.108Z,16.53
2018-12-14T10:33:18.739Z,15.50
2018-12-14T10:35:46.334Z,17.70
2018-12-14T10:38:13.952Z,16.53
2018-12-14T10:40:41.544Z,14.67
2018-12-14T10:43:09.151Z,15.13
2018-12-14T10:45:37.084Z,15.83
2018-12-14T10:48:04.764Z,14.67
2018-12-14T10:50:38.873Z,15.83
2018-12-14T10:53:04.679Z,15.40
2018-12-14T10:55:32.455Z,14.83
2018-12-14T10:58:00.092Z,15.20
2018-12-14T11:00:33.480Z,17.03
2018-12-14T11:03:01.070Z,15.30
2018-12-14T11:05:28.744Z,16.50
2018-12-14T11:07:56.327Z,16.57
2018-12-14T11:10:23.967Z,15.70
2018-12-14T11:12:51.632Z,14.50
2018-12-14T11:15:19.292Z,16.07
2018-12-14T11:17:46.954Z,16.70
2018-12-14T11:20:14.608Z,15.30
2018-12-14T11:22:42.234Z,14.87
2018-12-14T11:25:09.948Z,15.77
2018-12-14T11:27:37.611Z,15.77
2018-12-14T11:30:07.014Z,17.70
2018-12-14T11:32:34.604Z,17.43
2018-12-14T11:35:02.336Z,16.80
2018-12-14T11:37:29.995Z,18.20
2018-12-14T11:39:57.668Z,18.70
2018-12-14T11:42:25.331Z,17.43
2018-12-14T11:44:52.983Z,18.33
2018-12-14T11:47:20.577Z,15.60
2018-12-14T11:49:48.613Z,17.13
2018-12-14T11:52:16.432Z,17.23
2018-12-14T11:54:44.044Z,17.37
2018-12-14T11:57:11.712Z,16.83
2018-12-14T11:59:39.352Z,16.43
2018-12-14T12:02:06.932Z,17.73
2018-12-14T12:04:34.527Z,14.97
2018-12-14T12:07:02.152Z,15.60
2018-12-14T12:09:29.816Z,15.77
2018-12-14T12:11:57.479Z,15.40
2018-12-14T12:14:27.102Z,15.23
2018-12-14T12:16:54.862Z,15.70
2018-12-14T12:19:22.515Z,14.97
2018-12-14T12:21:50.368Z,14.13
2018-12-14T12:24:18.050Z,14.13
2018-12-14T12:26:45.719Z,14.47
2018-12-14T12:29:13.381Z,13.87
2018-12-14T12:31:41.044Z,12.13
2018-12-14T12:34:08.699Z,12.63
2018-12-14T12:36:36.368Z,12.87
2018-12-14T12:39:05.544Z,12.97
2018-12-14T12:41:33.279Z,13.93
2018-12-14T12:44:00.887Z,14.67
2018-12-14T12:46:28.556Z,12.63
2018-12-14T12:48:56.390Z,13.90
2018-12-14T12:51:24.002Z,15.50
2018-12-14T12:53:51.640Z,14.97
2018-12-14T12:56:19.597Z,14.77
2018-12-14T12:58:47.347Z,12.87
2018-12-14T13:01:15.038Z,12.20
2018-12-14T13:03:42.703Z,13.13
2018-12-14T13:06:10.343Z,14.37
2018-12-14T13:08:38.033Z,15.00
2018-12-14T13:11:05.662Z,15.67
2018-12-14T13:13:33.276Z,13.70
2018-12-14T13:16:00.860Z,13.50
2018-12-14T13:18:28.472Z,12.43
2018-12-14T13:20:56.064Z,12.37
2018-12-14T13:23:23.676Z,11.87
2018-12-14T13:25:51.263Z,12.10
2018-12-14T13:28:19.125Z,12.50
2018-12-14T13:30:47.797Z,13.50
2018-12-14T13:33:15.840Z,12.47
2018-12-14T13:35:43.645Z,13.87
2018-12-14T13:38:11.334Z,12.17
2018-12-14T13:40:38.989Z,12.50
2018-12-14T13:43:06.620Z,12.10
2018-12-14T13:45:34.209Z,11.57
2018-12-14T13:48:01.842Z,12.60
2018-12-14T13:50:29.736Z,12.03
2018-12-14T13:52:57.452Z,11.77
2018-12-14T13:55:25.155Z,13.03
2018-12-14T13:57:52.822Z,13.50
2018-12-14T14:00:20.488Z,13.73
2018-12-14T14:02:48.140Z,13.60
2018-12-14T14:05:15.856Z,15.30
2018-12-14T14:07:43.567Z,15.53
2018-12-14T14:10:11.212Z,16.10
2018-12-14T14:12:38.894Z,16.70
2018-12-14T14:15:09.091Z,16.07
2018-12-14T14:17:36.792Z,16.80
2018-12-14T14:20:07.323Z,15.73
2018-12-14T14:22:34.948Z,16.77
2018-12-14T14:25:02.560Z,17.20
2018-12-14T14:27:30.204Z,16.80
2018-12-14T14:29:57.807Z,17.27
2018-12-14T14:32:25.432Z,17.97
2018-12-14T14:34:53.097Z,16.93
2018-12-14T14:37:20.682Z,19.03
2018-12-14T14:39:48.311Z,18.87
2018-12-14T14:42:15.971Z,19.43
2018-12-14T14:44:43.645Z,17.60
2018-12-14T14:47:11.399Z,21.10
2018-12-14T14:49:39.068Z,18.07
2018-12-14T14:52:06.727Z,18.13
2018-12-14T14:54:39.837Z,17.93
2018-12-14T14:57:04.017Z,17.73
2018-12-14T14:59:31.764Z,17.97
2018-12-14T15:01:59.439Z,17.10
2018-12-14T15:04:27.096Z,15.43
2018-12-14T15:06:54.759Z,19.17
2018-12-14T15:09:22.484Z,16.30
2018-12-14T15:11:50.192Z,17.00
2018-12-14T15:14:17.847Z,15.83
2018-12-14T15:16:45.516Z,15.70
2018-12-14T15:19:13.176Z,16.10
2018-12-14T15:21:40.836Z,16.10
2018-12-14T15:24:08.494Z,15.20
2018-12-14T15:26:36.112Z,16.93
2018-12-14T15:29:03.734Z,16.77
2018-12-14T15:31:31.388Z,16.20
2018-12-14T15:33:59.051Z,16.87
2018-12-14T15:36:26.716Z,15.17
2018-12-14T15:38:54.375Z,15.97
2018-12-14T15:41:21.991Z,15.80
2018-12-14T15:43:49.595Z,15.40
2018-12-14T15:46:17.264Z,17.00
2018-12-14T15:48:44.928Z,14.93
2018-12-14T15:51:12.684Z,15.03
2018-12-14T15:53:40.442Z,16.10
2018-12-14T15:56:08.112Z,16.13
2018-12-14T15:58:35.858Z,16.17
2018-12-14T16:01:03.541Z,14.80
2018-12-14T16:03:31.213Z,14.80
2018-12-14T16:05:58.843Z,17.00
2018-12-14T16:08:26.434Z,16.67
2018-12-14T16:10:54.190Z,16.40
2018-12-14T16:13:21.860Z,15.80
2018-12-14T16:15:49.524Z,17.00
2018-12-14T16:18:17.301Z,17.90
2018-12-14T16:20:45.042Z,17.10
2018-12-14T16:23:12.713Z,16.43
2018-12-14T16:25:40.384Z,18.97
2018-12-14T16:28:07.995Z,17.60
2018-12-14T16:30:35.579Z,17.37
2018-12-14T16:33:03.183Z,17.37
2018-12-14T16:35:30.917Z,17.43
2018-12-14T16:37:58.581Z,17.00
2018-12-14T16:40:26.248Z,16.07
2018-12-14T16:42:53.929Z,18.23
2018-12-14T16:45:26.453Z,17.80
2018-12-14T16:47:51.212Z,17.23
2018-12-14T16:50:18.856Z,17.57
2018-12-14T16:52:47.661Z,17.83
2018-12-14T16:55:15.512Z,17.00
2018-12-14T16:57:43.167Z,20.53
2018-12-14T17:00:10.948Z,17.80
2018-12-14T17:02:38.596Z,17.73
2018-12-14T17:05:07.332Z,17.53
2018-12-14T17:07:35.156Z,14.80
2018-12-14T17:10:03.232Z,17.27
2018-12-14T17:12:30.887Z,19.60
2018-12-14T17:14:58.500Z,18.30
2018-12-14T17:17:26.118Z,18.93
2018-12-14T17:19:53.780Z,18.73
2018-12-14T17:22:21.445Z,17.57
2018-12-14T17:24:49.112Z,17.47
2018-12-14T17:27:16.704Z,19.50
2018-12-14T17:29:45.641Z,20.53
2018-12-14T17:32:13.522Z,18.00
2018-12-14T17:34:41.201Z,19.77
2018-12-14T17:37:08.852Z,18.97
2018-12-14T17:39:36.521Z,18.70
2018-12-14T17:42:04.176Z,17.57
2018-12-14T17:44:31.845Z,17.67
2018-12-14T17:46:59.472Z,16.33
2018-12-14T17:49:27.075Z,18.10
2018-12-14T17:51:54.712Z,15.67
2018-12-14T17:54:22.340Z,18.63
2018-12-14T17:56:49.943Z,17.07
2018-12-14T17:59:17.556Z,20.73
2018-12-14T18:01:45.328Z,18.20
2018-12-14T18:04:13.041Z,17.03
2018-12-14T18:06:40.622Z,17.50
2018-12-14T18:09:08.364Z,17.97
2018-12-14T18:11:36.119Z,17.63
2018-12-14T18:14:03.798Z,17.50
2018-12-14T18:16:31.756Z,17.40
2018-12-14T18:18:59.353Z,15.70
2018-12-14T18:21:26.983Z,18.90
2018-12-14T18:23:54.647Z,18.30
2018-12-14T18:26:22.311Z,17.87
2018-12-14T18:28:49.976Z,16.90
2018-12-14T18:31:17.630Z,17.07
2018-12-14T18:33:45.299Z,18.17
2018-12-14T18:36:13.061Z,18.20
2018-12-14T18:38:40.737Z,18.60
2018-12-14T18:41:08.351Z,18.03
2018-12-14T18:43:36.043Z,18.53
2018-12-14T18:46:03.702Z,17.47
2018-12-14T18:48:31.384Z,17.57
2018-12-14T18:50:58.987Z,18.37
2018-12-14T18:53:26.609Z,17.93
2018-12-14T18:55:54.276Z,18.70
2018-12-14T18:58:21.943Z,17.83
2018-12-14T19:00:49.574Z,17.10
2018-12-14T19:03:17.260Z,15.40
2018-12-14T19:05:44.932Z,18.40
2018-12-14T19:08:12.576Z,16.07
2018-12-14T19:10:40.168Z,18.90
2018-12-14T19:13:07.786Z,19.17
2018-12-14T19:15:35.463Z,17.80
2018-12-14T19:18:03.136Z,17.93
2018-12-14T19:20:30.727Z,20.07
2018-12-14T19:22:58.355Z,18.00
2018-12-14T19:25:26.613Z,15.50
2018-12-14T19:27:54.296Z,19.77
2018-12-14T19:30:21.887Z,18.27
2018-12-14T19:32:49.592Z,19.30
2018-12-14T19:35:17.272Z,18.27
2018-12-14T19:37:44.884Z,16.90
2018-12-14T19:40:12.664Z,17.10
2018-12-14T19:42:40.340Z,16.63
2018-12-14T19:45:08.708Z,19.27
2018-12-14T19:47:36.555Z,18.37
2018-12-14T19:50:07.457Z,18.07
2018-12-14T19:52:36.240Z,19.03
2018-12-14T19:55:05.634Z,17.20
2018-12-14T19:57:33.303Z,17.90
2018-12-14T20:00:00.974Z,18.00
2018-12-14T20:02:28.635Z,17.43
2018-12-14T20:04:56.240Z,18.03
2018-12-14T20:07:23.963Z,19.23
2018-12-14T20:09:52.041Z,18.57
2018-12-14T20:12:19.652Z,18.03
2018-12-14T20:14:47.259Z,18.23
2018-12-14T20:17:14.880Z,18.27
2018-12-14T20:19:44.015Z,19.33
2018-12-14T20:22:11.609Z,20.30
2018-12-14T20:24:39.251Z,17.93
2018-12-14T20:27:06.907Z,17.77
2018-12-14T20:29:34.519Z,17.37
2018-12-14T20:32:02.131Z,18.00
2018-12-14T20:34:29.795Z,19.80
2018-12-14T20:36:57.451Z,17.80
2018-12-14T20:39:25.120Z,18.90
2018-12-14T20:41:52.985Z,18.90
2018-12-14T20:44:20.648Z,20.50
2018-12-14T20:46:48.316Z,18.37
2018-12-14T20:49:15.919Z,19.80
2018-12-14T20:51:43.523Z,20.90
2018-12-14T20:54:11.193Z,19.00
2018-12-14T20:56:38.952Z,22.30
2018-12-14T20:59:06.623Z,20.43
2018-12-14T21:01:34.207Z,20.27
2018-12-14T21:04:01.818Z,19.83
2018-12-14T21:06:29.412Z,18.93
2018-12-14T21:08:57.024Z,21.33
2018-12-14T21:11:24.646Z,21.13
2018-12-14T21:13:52.294Z,20.37
2018-12-14T21:16:25.759Z,19.83
2018-12-14T21:18:49.673Z,18.23
2018-12-14T21:21:17.336Z,19.00
2018-12-14T21:23:44.968Z,19.60
2018-12-14T21:26:12.647Z,19.20
2018-12-14T21:28:40.326Z,19.17
2018-12-14T21:31:07.993Z,18.60
2018-12-14T21:33:35.648Z,19.23
2018-12-14T21:36:03.307Z,19.70
2018-12-14T21:38:30.967Z,18.80
2018-12-14T21:40:58.630Z,19.03
2018-12-14T21:43:26.295Z,18.47
2018-12-14T21:45:53.964Z,19.70
2018-12-14T21:48:21.551Z,17.70
2018-12-14T21:50:49.183Z,17.90
2018-12-14T21:53:16.771Z,18.00
2018-12-14T21:55:44.378Z,17.10
2018-12-14T21:58:12.207Z,20.07
2018-12-14T22:00:39.823Z,17.60
2018-12-14T22:03:07.506Z,20.00
2018-12-14T22:05:35.116Z,18.50
2018-12-14T22:08:02.700Z,18.80
2018-12-14T22:10:30.323Z,18.60
2018-12-14T22:12:57.952Z,18.17
2018-12-14T22:15:25.545Z,19.23
2018-12-14T22:17:53.160Z,19.23
2018-12-14T22:20:20.743Z,18.53
2018-12-14T22:22:48.351Z,18.80
2018-12-14T22:25:16.050Z,16.40
2018-12-14T22:27:43.720Z,19.47
2018-12-14T22:30:11.490Z,20.13
2018-12-14T22:32:39.100Z,18.97
2018-12-14T22:35:06.817Z,18.80
2018-12-14T22:37:34.428Z,19.00
2018-12-14T22:40:02.104Z,19.20
2018-12-14T22:42:29.800Z,17.43
2018-12-14T22:44:57.385Z,18.70
2018-12-14T22:47:25.021Z,19.70
2018-12-14T22:49:52.680Z,17.17
2018-12-14T22:52:20.352Z,17.97
2018-12-14T22:54:47.982Z,16.90
2018-12-14T22:57:15.584Z,17.80
2018-12-14T22:59:43.167Z,16.53
2018-12-14T23:02:10.790Z,19.77
2018-12-14T23:04:38.455Z,17.00
2018-12-14T23:07:06.124Z,17.43
2018-12-14T23:09:33.784Z,18.00
2018-12-14T23:12:01.451Z,18.60
2018-12-14T23:14:29.112Z,17.53
2018-12-14T23:16:56.724Z,19.30
2018-12-14T23:19:24.417Z,18.97
2018-12-14T23:21:52.032Z,18.73
2018-12-14T23:24:19.620Z,18.20
2018-12-14T23:26:47.315Z,17.27
2018-12-14T23:29:14.986Z,17.73
2018-12-14T23:31:42.648Z,17.80
2018-12-14T23:34:10.311Z,16.70
2018-12-14T23:36:38.072Z,15.67
2018-12-14T23:39:06.552Z,18.63
2018-12-14T23:41:34.218Z,16.27
2018-12-14T23:44:01.871Z,17.70
2018-12-14T23:46:29.548Z,16.53
2018-12-14T23:48:57.207Z,17.50
2018-12-14T23:51:24.875Z,18.20
2018-12-14T23:53:52.535Z,16.63
2018-12-14T23:56:20.201Z,16.63
2018-12-14T23:58:47.861Z,18.00
